PILOTS ONLINE: 559    ATC ONLINE: 89

KNSE - Whiting Field Naval Air Station North Airport

Location

City Milton
Country  United States
Latitude 30° 43' 27" N
Longitude 87° 1' 18" W
Elevation 199 ft
Type Medium Airport

Runways

05/23 6000 ft / 200 ft
09/27 6000 ft / 200 ft
14/32 6000 ft / 200 ft
18/36 6000 ft / 200 ft

Weather

METAR
2014/07/26 12:56
KNSE 261256Z AUTO 29003KT 7SM CLR 26/23 A3007 RMK AO2 SLP167 T02610233
TAF
2014/07/26 07:31
TAF KNSE 2607/2707 26006KT 8000 BR SCT010 SCT250 QNH3000INS 
      BECMG 2612/2614 24010KT 9999 SCT020 SCT250 QNH3003INS 
      BECMG 2616/2618 25006KT 9999 SCT035CB SCT080 BKN250 QNH2995INS AUTOMATED SENSOR METWATCH 2607 TIL 2722 T22/2612Z T32/2620Z

Outbound flights

Inbound flights